createdAt,value
2019-05-11T00:01:14.720Z,95335.80
2019-05-11T00:03:40.815Z,95344.11
2019-05-11T00:06:06.743Z,95342.37
2019-05-11T00:08:32.785Z,95343.10
2019-05-11T00:10:58.925Z,95342.51
2019-05-11T00:13:25.033Z,95336.93
2019-05-11T00:15:51.041Z,95342.23
2019-05-11T00:18:17.061Z,95339.27
2019-05-11T00:20:43.103Z,95339.13
2019-05-11T00:23:09.111Z,95339.72
2019-05-11T00:25:35.143Z,95334.41
2019-05-11T00:28:01.179Z,95321.98
2019-05-11T00:30:27.296Z,95330.49
2019-05-11T00:32:53.207Z,95320.71
2019-05-11T00:35:19.218Z,95330.30
2019-05-11T00:37:45.196Z,95333.14
2019-05-11T00:40:14.769Z,95332.37
2019-05-11T00:42:39.528Z,95327.53
2019-05-11T00:45:05.879Z,95327.39
2019-05-11T00:47:32.284Z,95328.66
2019-05-11T00:49:58.382Z,95333.14
2019-05-11T00:52:24.420Z,95321.67
2019-05-11T00:54:50.320Z,95327.30
2019-05-11T00:57:16.433Z,95333.11
2019-05-11T00:59:42.336Z,95332.41
2019-05-11T01:02:08.277Z,95330.36
2019-05-11T01:04:34.277Z,95331.17
2019-05-11T01:07:00.296Z,95339.17
2019-05-11T01:09:26.295Z,95335.93
2019-05-11T01:11:52.326Z,95333.42
2019-05-11T01:14:18.438Z,95335.48
2019-05-11T01:16:44.544Z,95338.48
2019-05-11T01:19:10.671Z,95335.62
2019-05-11T01:21:36.671Z,95332.16
2019-05-11T01:24:02.799Z,95341.42
2019-05-11T01:26:28.905Z,95337.67
2019-05-11T01:28:54.915Z,95339.22
2019-05-11T01:31:20.938Z,95342.09
2019-05-11T01:33:47.047Z,95341.59
2019-05-11T01:36:13.054Z,95343.56
2019-05-11T01:38:39.161Z,95346.30
2019-05-11T01:41:05.269Z,95349.17
2019-05-11T01:43:31.279Z,95343.66
2019-05-11T01:45:57.373Z,95345.70
2019-05-11T01:48:23.545Z,95353.00
2019-05-11T01:50:49.530Z,95350.48
2019-05-11T01:53:15.466Z,95350.35
2019-05-11T01:55:41.466Z,95349.59
2019-05-11T01:58:07.482Z,95349.91
2019-05-11T02:00:33.617Z,95350.50
2019-05-11T02:02:59.750Z,95349.82
2019-05-11T02:05:27.755Z,95347.57
2019-05-11T02:07:53.985Z,95355.06
2019-05-11T02:10:19.987Z,95351.17
2019-05-11T02:12:46.104Z,95347.48
2019-05-11T02:15:12.207Z,95354.19
2019-05-11T02:17:38.215Z,95348.12
2019-05-11T02:20:04.626Z,95352.33
2019-05-11T02:22:30.736Z,95351.09
2019-05-11T02:24:56.649Z,95350.55
2019-05-11T02:27:22.696Z,95353.43
2019-05-11T02:29:48.637Z,95352.41
2019-05-11T02:32:14.534Z,95357.57
2019-05-11T02:34:40.472Z,95358.58
2019-05-11T02:37:06.505Z,95356.25
2019-05-11T02:39:32.503Z,95360.50
2019-05-11T02:41:58.804Z,95361.32
2019-05-11T02:44:24.848Z,95357.57
2019-05-11T02:46:50.969Z,95363.88
2019-05-11T02:49:17.009Z,95365.20
2019-05-11T02:51:43.538Z,95368.36
2019-05-11T02:54:10.257Z,95362.61
2019-05-11T02:56:36.155Z,95369.03
2019-05-11T02:59:02.454Z,95366.08
2019-05-11T03:01:28.359Z,95375.06
2019-05-11T03:03:54.370Z,95371.59
2019-05-11T03:06:20.411Z,95371.45
2019-05-11T03:08:46.414Z,95378.02
2019-05-11T03:11:12.412Z,95376.69
2019-05-11T03:13:38.413Z,95378.02
2019-05-11T03:16:04.523Z,95375.78
2019-05-11T03:18:30.552Z,95374.75
2019-05-11T03:20:56.662Z,95382.61
2019-05-11T03:23:22.698Z,95379.17
2019-05-11T03:25:48.702Z,95378.86
2019-05-11T03:28:14.698Z,95380.34
2019-05-11T03:30:40.968Z,95385.55
2019-05-11T03:33:07.110Z,95382.75
2019-05-11T03:35:33.213Z,95389.59
2019-05-11T03:37:59.218Z,95385.69
2019-05-11T03:40:25.329Z,95393.84
2019-05-11T03:42:51.341Z,95399.14
2019-05-11T03:45:17.448Z,95405.53
2019-05-11T03:47:43.469Z,95401.91
2019-05-11T03:50:09.697Z,95415.30
2019-05-11T03:52:35.626Z,95415.96
2019-05-11T03:55:01.757Z,95410.45
2019-05-11T03:57:27.909Z,95402.38
2019-05-11T03:59:53.821Z,95409.44
2019-05-11T04:02:19.826Z,95402.09
2019-05-11T04:04:45.827Z,95391.66
2019-05-11T04:07:11.765Z,95399.75
2019-05-11T04:09:37.893Z,95410.78
2019-05-11T04:12:04.020Z,95406.17
2019-05-11T04:14:30.052Z,95406.83
2019-05-11T04:16:56.055Z,95407.14
2019-05-11T04:19:22.008Z,95408.08
2019-05-11T04:21:48.096Z,95419.05
2019-05-11T04:24:14.122Z,95420.73
2019-05-11T04:26:40.226Z,95413.39
2019-05-11T04:29:06.225Z,95417.03
2019-05-11T04:31:32.235Z,95413.94
2019-05-11T04:33:58.351Z,95421.21
2019-05-11T04:36:24.448Z,95424.09
2019-05-11T04:38:50.448Z,95420.84
2019-05-11T04:41:16.474Z,95431.73
2019-05-11T04:43:42.375Z,95429.22
2019-05-11T04:46:08.402Z,95437.17
2019-05-11T04:48:34.411Z,95432.25
2019-05-11T04:51:00.324Z,95435.27
2019-05-11T04:53:26.731Z,95438.65
2019-05-11T04:55:52.864Z,95435.55
2019-05-11T04:58:18.905Z,95437.01
2019-05-11T05:00:44.895Z,95434.80
2019-05-11T05:03:11.027Z,95443.69
2019-05-11T05:05:37.033Z,95446.47
2019-05-11T05:08:09.602Z,95445.97
2019-05-11T05:10:31.045Z,95444.64
2019-05-11T05:13:09.724Z,95436.36
2019-05-11T05:15:24.853Z,95442.70
2019-05-11T05:17:50.959Z,95442.02
2019-05-11T05:20:17.060Z,95436.61
2019-05-11T05:22:43.309Z,95438.06
2019-05-11T05:25:09.424Z,95442.81
2019-05-11T05:27:35.411Z,95446.84
2019-05-11T05:30:02.064Z,95445.51
2019-05-11T05:32:28.156Z,95435.75
2019-05-11T05:34:54.155Z,95448.33
2019-05-11T05:37:20.060Z,95442.61
2019-05-11T05:39:45.971Z,95444.80
2019-05-11T05:42:12.313Z,95442.60
2019-05-11T05:44:38.312Z,95442.42
2019-05-11T05:47:04.213Z,95437.14
2019-05-11T05:49:30.216Z,95443.66
2019-05-11T05:51:58.344Z,95446.89
2019-05-11T05:54:24.230Z,95445.21
2019-05-11T05:56:51.112Z,95445.13
2019-05-11T05:59:17.230Z,95441.23
2019-05-11T06:01:43.316Z,95440.55
2019-05-11T06:04:09.447Z,95435.19
2019-05-11T06:06:35.464Z,95428.47
2019-05-11T06:09:01.595Z,95442.45
2019-05-11T06:11:27.623Z,95429.66
2019-05-11T06:13:53.520Z,95430.53
2019-05-11T06:16:19.450Z,95438.36
2019-05-11T06:18:45.488Z,95427.19
2019-05-11T06:21:11.378Z,95429.87
2019-05-11T06:23:37.409Z,95436.58
2019-05-11T06:26:03.529Z,95440.03
2019-05-11T06:28:29.658Z,95434.39
2019-05-11T06:30:55.558Z,95439.22
2019-05-11T06:33:21.573Z,95435.61
2019-05-11T06:35:47.520Z,95437.55
2019-05-11T06:38:13.455Z,95430.64
2019-05-11T06:40:39.574Z,95433.92
2019-05-11T06:43:05.676Z,95432.36
2019-05-11T06:45:31.781Z,95435.63
2019-05-11T06:47:57.822Z,95442.61
2019-05-11T06:50:23.729Z,95443.45
2019-05-11T06:52:49.742Z,95434.36
2019-05-11T06:55:15.872Z,95434.66
2019-05-11T06:57:41.882Z,95434.95
2019-05-11T07:00:08.651Z,95432.59
2019-05-11T07:02:34.536Z,95434.73
2019-05-11T07:05:00.554Z,95441.28
2019-05-11T07:07:26.452Z,95436.75
2019-05-11T07:09:52.396Z,95443.69
2019-05-11T07:12:18.463Z,95443.43
2019-05-11T07:14:44.726Z,95437.83
2019-05-11T07:17:10.827Z,95444.77
2019-05-11T07:19:36.932Z,95449.53
2019-05-11T07:22:03.034Z,95447.68
2019-05-11T07:24:29.137Z,95446.16
2019-05-11T07:26:55.252Z,95441.98
2019-05-11T07:29:21.161Z,95447.64
2019-05-11T07:31:47.161Z,95444.48
2019-05-11T07:34:13.066Z,95443.23
2019-05-11T07:36:39.211Z,95438.58
2019-05-11T07:39:05.517Z,95441.56
2019-05-11T07:41:31.452Z,95440.71
2019-05-11T07:43:58.960Z,95439.25
2019-05-11T07:46:25.271Z,95434.31
2019-05-11T07:48:51.170Z,95437.06
2019-05-11T07:51:18.268Z,95442.20
2019-05-11T07:53:44.499Z,95435.04
2019-05-11T07:56:10.594Z,95435.08
2019-05-11T07:58:38.760Z,95433.70
2019-05-11T08:01:04.630Z,95426.72
2019-05-11T08:03:30.737Z,95418.91
2019-05-11T08:05:58.257Z,95419.73
2019-05-11T08:08:25.213Z,95419.20
2019-05-11T08:10:51.429Z,95424.61
2019-05-11T08:13:17.876Z,95430.50
2019-05-11T08:15:44.087Z,95428.06
2019-05-11T08:18:10.121Z,95436.88
2019-05-11T08:20:38.461Z,95433.19
2019-05-11T08:23:04.375Z,95430.25
2019-05-11T08:25:30.886Z,95422.97
2019-05-11T08:27:58.870Z,95420.42
2019-05-11T08:30:25.162Z,95427.28
2019-05-11T08:32:51.283Z,95417.52
2019-05-11T08:35:17.962Z,95418.80
2019-05-11T08:37:44.121Z,95412.70
2019-05-11T08:40:10.830Z,95410.66
2019-05-11T08:42:37.832Z,95412.66
2019-05-11T08:45:16.148Z,95420.95
2019-05-11T08:47:32.528Z,95416.70
2019-05-11T08:49:59.054Z,95416.70
2019-05-11T08:52:25.133Z,95420.91
2019-05-11T08:54:51.181Z,95425.30
2019-05-11T08:57:17.981Z,95436.08
2019-05-11T08:59:44.322Z,95440.66
2019-05-11T09:02:10.365Z,95440.44
2019-05-11T09:04:39.425Z,95442.34
2019-05-11T09:07:04.414Z,95448.06
2019-05-11T09:09:30.523Z,95450.01
2019-05-11T09:11:58.914Z,95451.66
2019-05-11T09:14:24.561Z,95453.00
2019-05-11T09:16:50.583Z,95460.02
2019-05-11T09:19:17.779Z,95459.47
2019-05-11T09:21:44.129Z,95454.11
2019-05-11T09:24:10.137Z,95457.05
2019-05-11T09:26:38.646Z,95455.98
2019-05-11T09:29:04.150Z,95455.16
2019-05-11T09:31:30.263Z,95452.77
2019-05-11T09:33:58.363Z,95455.98
2019-05-11T09:36:24.320Z,95456.50
2019-05-11T09:38:50.482Z,95456.48
2019-05-11T09:41:18.013Z,95451.13
2019-05-11T09:43:44.401Z,95447.94
2019-05-11T09:46:10.507Z,95449.52
2019-05-11T09:48:37.805Z,95441.23
2019-05-11T09:51:04.225Z,95450.59
2019-05-11T09:53:30.137Z,95444.95
2019-05-11T09:55:58.526Z,95448.13
2019-05-11T09:58:24.295Z,95447.03
2019-05-11T10:00:50.232Z,95455.03
2019-05-11T10:03:18.149Z,95446.94
2019-05-11T10:05:44.184Z,95451.73
2019-05-11T10:08:10.227Z,95458.67
2019-05-11T10:10:38.313Z,95461.04
2019-05-11T10:13:04.343Z,95474.96
2019-05-11T10:15:30.452Z,95480.52
2019-05-11T10:17:58.227Z,95479.89
2019-05-11T10:20:24.379Z,95469.39
2019-05-11T10:22:50.409Z,95471.25
2019-05-11T10:25:18.173Z,95470.72
2019-05-11T10:27:44.643Z,95467.06
2019-05-11T10:30:10.951Z,95467.84
2019-05-11T10:32:38.022Z,95462.55
2019-05-11T10:35:04.771Z,95467.66
2019-05-11T10:37:30.813Z,95466.66
2019-05-11T10:39:57.800Z,95460.82
2019-05-11T10:42:24.054Z,95464.38
2019-05-11T10:44:49.952Z,95464.42
2019-05-11T10:47:18.288Z,95464.97
2019-05-11T10:49:44.025Z,95463.71
2019-05-11T10:52:10.017Z,95464.30
2019-05-11T10:54:39.198Z,95457.33
2019-05-11T10:57:04.051Z,95453.28
2019-05-11T10:59:30.090Z,95446.22
2019-05-11T11:01:55.987Z,95436.41
2019-05-11T11:04:22.099Z,95436.52
2019-05-11T11:06:48.505Z,95434.14
2019-05-11T11:09:14.917Z,95440.84
2019-05-11T11:11:41.036Z,95438.95
2019-05-11T11:14:08.706Z,95427.66
2019-05-11T11:16:39.260Z,95427.37
2019-05-11T11:19:02.864Z,95427.11
2019-05-11T11:21:28.975Z,95419.97
2019-05-11T11:23:54.869Z,95416.51
2019-05-11T11:26:20.891Z,95418.09
2019-05-11T11:28:47.835Z,95411.34
2019-05-11T11:31:14.106Z,95407.72
2019-05-11T11:33:40.214Z,95411.78
2019-05-11T11:36:08.367Z,95411.86
2019-05-11T11:38:34.229Z,95412.26
2019-05-11T11:41:00.345Z,95411.47
2019-05-11T11:43:28.588Z,95410.66
2019-05-11T11:45:54.396Z,95408.41
2019-05-11T11:48:22.303Z,95407.89
2019-05-11T11:50:48.724Z,95411.50
2019-05-11T11:53:18.822Z,95405.94
2019-05-11T11:55:48.034Z,95409.16
2019-05-11T11:58:15.277Z,95396.81
2019-05-11T12:00:41.844Z,95405.64
2019-05-11T12:03:08.186Z,95397.58
2019-05-11T12:05:34.663Z,95383.89
2019-05-11T12:10:21.792Z,95389.89
2019-05-11T12:12:47.854Z,95395.69
2019-05-11T12:15:17.615Z,95394.27
2019-05-11T12:17:43.463Z,95393.70
2019-05-11T12:20:09.663Z,95387.13
2019-05-11T12:22:35.570Z,95387.09
2019-05-11T12:25:01.581Z,95389.33
2019-05-11T12:27:28.690Z,95381.03
2019-05-11T12:29:54.987Z,95380.91
2019-05-11T12:32:22.931Z,95374.30
2019-05-11T12:34:48.964Z,95371.28
2019-05-11T12:37:14.974Z,95373.10
2019-05-11T12:39:40.983Z,95361.00
2019-05-11T12:42:08.605Z,95365.20
2019-05-11T12:44:34.753Z,95356.47
2019-05-11T12:47:00.772Z,95347.14
2019-05-11T12:49:28.695Z,95364.11
2019-05-11T12:51:54.685Z,95357.56
2019-05-11T12:54:20.646Z,95352.14
2019-05-11T12:56:48.854Z,95357.43
2019-05-11T12:59:14.667Z,95347.03
2019-05-11T13:01:41.052Z,95346.23
2019-05-11T13:04:08.874Z,95337.14
2019-05-11T13:06:35.110Z,95349.25
2019-05-11T13:09:01.228Z,95352.78
2019-05-11T13:11:28.611Z,95350.17
2019-05-11T13:13:54.774Z,95345.58
2019-05-11T13:16:22.301Z,95348.28
2019-05-11T13:18:48.735Z,95350.84
2019-05-11T13:21:15.060Z,95342.75
2019-05-11T13:23:40.978Z,95359.39
2019-05-11T13:26:08.746Z,95348.22
2019-05-11T13:28:34.907Z,95347.16
2019-05-11T13:31:00.930Z,95350.39
2019-05-11T13:33:28.001Z,95354.10
2019-05-11T13:35:54.179Z,95344.04
2019-05-11T13:38:20.182Z,95350.08
2019-05-11T13:40:48.743Z,95338.06
2019-05-11T13:43:14.937Z,95338.06
2019-05-11T13:45:41.127Z,95350.27
2019-05-11T13:48:08.476Z,95342.72
2019-05-11T13:50:34.635Z,95352.03
2019-05-11T13:53:00.703Z,95343.78
2019-05-11T13:55:28.413Z,95338.03
2019-05-11T13:57:54.444Z,95336.47
2019-05-11T14:00:20.688Z,95334.52
2019-05-11T14:02:48.498Z,95337.42
2019-05-11T14:05:14.936Z,95336.81
2019-05-11T14:07:41.092Z,95346.57
2019-05-11T14:10:08.072Z,95338.38
2019-05-11T14:12:34.284Z,95336.75
2019-05-11T14:15:00.399Z,95339.78
2019-05-11T14:17:28.759Z,95339.66
2019-05-11T14:19:54.626Z,95340.50
2019-05-11T14:22:20.627Z,95348.70
2019-05-11T14:24:48.255Z,95352.53
2019-05-11T14:27:14.608Z,95351.09
2019-05-11T14:29:41.504Z,95353.17
